sensor_id;sensor_type;location;lat;lon;timestamp;pressure;altitude;pressure_sealevel;temperature;humidity
77749;BME280;66938;52.084;5.228;2024-02-26T00:00:55;100087.0;;;7.03;100.0
77749;BME280;66938;52.084;5.228;2024-02-26T00:04:07;100089.0;;;7.09;100.0
77749;BME280;66938;52.084;5.228;2024-02-26T00:05:45;100090.0;;;7.16;100.0
77749;BME280;66938;52.084;5.228;2024-02-26T00:07:21;100092.0;;;7.26;100.0
77749;BME280;66938;52.084;5.228;2024-02-26T00:10:35;100093.0;;;7.42;100.0
77749;BME280;66938;52.084;5.228;2024-02-26T00:12:11;100090.0;;;7.11;100.0
77749;BME280;66938;52.084;5.228;2024-02-26T00:13:49;100091.0;;;7.1;100.0
77749;BME280;66938;52.084;5.228;2024-02-26T00:15:26;100095.0;;;7.31;100.0
77749;BME280;66938;52.084;5.228;2024-02-26T00:18:39;100092.0;;;7.37;100.0
77749;BME280;66938;52.084;5.228;2024-02-26T00:20:15;100091.0;;;7.34;100.0
77749;BME280;66938;52.084;5.228;2024-02-26T00:21:51;100097.0;;;7.14;100.0
77749;BME280;66938;52.084;5.228;2024-02-26T00:25:05;100093.0;;;7.19;100.0
77749;BME280;66938;52.084;5.228;2024-02-26T00:26:42;100094.0;;;7.34;100.0
77749;BME280;66938;52.084;5.228;2024-02-26T00:28:20;100095.0;;;7.36;100.0
77749;BME280;66938;52.084;5.228;2024-02-26T00:31:33;100097.0;;;7.34;100.0
77749;BME280;66938;52.084;5.228;2024-02-26T00:33:10;100098.0;;;7.32;100.0
77749;BME280;66938;52.084;5.228;2024-02-26T00:34:46;100097.0;;;7.26;100.0
77749;BME280;66938;52.084;5.228;2024-02-26T00:36:22;100098.0;;;7.27;100.0
77749;BME280;66938;52.084;5.228;2024-02-26T00:39:35;100097.0;;;7.22;100.0
77749;BME280;66938;52.084;5.228;2024-02-26T00:41:11;100094.0;;;7.17;100.0
77749;BME280;66938;52.084;5.228;2024-02-26T00:42:47;100094.0;;;7.11;100.0
77749;BME280;66938;52.084;5.228;2024-02-26T00:46:01;100100.0;;;7.01;100.0
77749;BME280;66938;52.084;5.228;2024-02-26T00:47:37;100098.0;;;7.12;100.0
77749;BME280;66938;52.084;5.228;2024-02-26T00:49:13;100099.0;;;7.12;100.0
77749;BME280;66938;52.084;5.228;2024-02-26T00:52:25;100105.0;;;6.94;100.0
77749;BME280;66938;52.084;5.228;2024-02-26T00:54:02;100096.0;;;7.11;100.0
77749;BME280;66938;52.084;5.228;2024-02-26T00:55:38;100100.0;;;6.99;100.0
77749;BME280;66938;52.084;5.228;2024-02-26T00:58:50;100103.0;;;6.88;100.0
77749;BME280;66938;52.084;5.228;2024-02-26T01:00:26;100095.0;;;7.14;100.0
77749;BME280;66938;52.084;5.228;2024-02-26T01:02:03;100097.0;;;7.12;100.0
77749;BME280;66938;52.084;5.228;2024-02-26T01:03:39;100100.0;;;7.01;100.0
77749;BME280;66938;52.084;5.228;2024-02-26T01:06:51;100100.0;;;7.03;100.0
77749;BME280;66938;52.084;5.228;2024-02-26T01:08:27;100095.0;;;7.05;100.0
77749;BME280;66938;52.084;5.228;2024-02-26T01:10:08;100091.0;;;7.09;100.0
77749;BME280;66938;52.084;5.228;2024-02-26T01:13:21;100087.0;;;7.06;100.0
77749;BME280;66938;52.084;5.228;2024-02-26T01:14:57;100084.0;;;7.11;100.0
77749;BME280;66938;52.084;5.228;2024-02-26T01:16:34;100084.0;;;7.12;100.0
77749;BME280;66938;52.084;5.228;2024-02-26T01:19:47;100088.0;;;7.08;100.0
77749;BME280;66938;52.084;5.228;2024-02-26T01:21:24;100088.0;;;7.19;100.0
77749;BME280;66938;52.084;5.228;2024-02-26T01:23:01;100088.0;;;7.14;100.0
77749;BME280;66938;52.084;5.228;2024-02-26T01:24:37;100087.0;;;7.16;100.0
77749;BME280;66938;52.084;5.228;2024-02-26T01:27:49;100086.0;;;7.04;100.0
77749;BME280;66938;52.084;5.228;2024-02-26T01:29:26;100082.0;;;7.08;100.0
77749;BME280;66938;52.084;5.228;2024-02-26T01:31:03;100084.0;;;7.15;100.0
77749;BME280;66938;52.084;5.228;2024-02-26T01:34:16;100084.0;;;7.23;100.0
77749;BME280;66938;52.084;5.228;2024-02-26T01:35:53;100084.0;;;7.28;100.0
77749;BME280;66938;52.084;5.228;2024-02-26T01:37:29;100086.0;;;7.15;100.0
77749;BME280;66938;52.084;5.228;2024-02-26T01:40:41;100087.0;;;7.3;100.0
77749;BME280;66938;52.084;5.228;2024-02-26T01:42:17;100089.0;;;7.32;100.0
77749;BME280;66938;52.084;5.228;2024-02-26T01:43:56;100092.0;;;7.3;100.0
77749;BME280;66938;52.084;5.228;2024-02-26T01:45:32;100080.0;;;7.32;100.0
77749;BME280;66938;52.084;5.228;2024-02-26T01:48:48;100083.0;;;7.4;100.0
77749;BME280;66938;52.084;5.228;2024-02-26T01:50:25;100084.0;;;7.38;100.0
77749;BME280;66938;52.084;5.228;2024-02-26T01:52:03;100080.0;;;7.33;100.0
77749;BME280;66938;52.084;5.228;2024-02-26T01:55:17;100085.0;;;7.36;100.0
77749;BME280;66938;52.084;5.228;2024-02-26T01:56:54;100093.0;;;7.41;100.0
77749;BME280;66938;52.084;5.228;2024-02-26T01:58:32;100099.0;;;7.42;100.0
77749;BME280;66938;52.084;5.228;2024-02-26T02:00:10;100096.0;;;7.37;100.0
77749;BME280;66938;52.084;5.228;2024-02-26T02:03:31;100098.0;;;7.43;100.0
77749;BME280;66938;52.084;5.228;2024-02-26T02:05:08;100094.0;;;7.39;100.0
77749;BME280;66938;52.084;5.228;2024-02-26T02:06:45;100100.0;;;7.38;100.0
77749;BME280;66938;52.084;5.228;2024-02-26T02:10:00;100099.0;;;7.39;100.0
77749;BME280;66938;52.084;5.228;2024-02-26T02:11:37;100100.0;;;7.45;100.0
77749;BME280;66938;52.084;5.228;2024-02-26T02:13:13;100106.0;;;7.39;100.0
77749;BME280;66938;52.084;5.228;2024-02-26T02:14:49;100107.0;;;7.28;100.0
77749;BME280;66938;52.084;5.228;2024-02-26T02:18:02;100109.0;;;7.51;100.0
77749;BME280;66938;52.084;5.228;2024-02-26T02:19:38;100118.0;;;7.47;100.0
77749;BME280;66938;52.084;5.228;2024-02-26T02:21:14;100115.0;;;7.47;100.0
77749;BME280;66938;52.084;5.228;2024-02-26T02:24:26;100116.0;;;7.48;100.0
77749;BME280;66938;52.084;5.228;2024-02-26T02:26:03;100118.0;;;7.47;100.0
77749;BME280;66938;52.084;5.228;2024-02-26T02:27:40;100121.0;;;7.49;100.0
77749;BME280;66938;52.084;5.228;2024-02-26T02:30:52;100122.0;;;7.41;100.0
77749;BME280;66938;52.084;5.228;2024-02-26T02:32:29;100122.0;;;7.46;100.0
77749;BME280;66938;52.084;5.228;2024-02-26T02:34:07;100121.0;;;7.38;100.0
77749;BME280;66938;52.084;5.228;2024-02-26T02:35:45;100123.0;;;7.41;100.0
77749;BME280;66938;52.084;5.228;2024-02-26T02:38:58;100124.0;;;7.46;100.0
77749;BME280;66938;52.084;5.228;2024-02-26T02:40:34;100130.0;;;7.47;100.0
77749;BME280;66938;52.084;5.228;2024-02-26T02:42:11;100135.0;;;7.44;100.0
77749;BME280;66938;52.084;5.228;2024-02-26T02:45:23;100135.0;;;7.43;100.0
77749;BME280;66938;52.084;5.228;2024-02-26T02:46:59;100138.0;;;7.36;100.0
77749;BME280;66938;52.084;5.228;2024-02-26T02:48:35;100137.0;;;7.46;100.0
77749;BME280;66938;52.084;5.228;2024-02-26T02:51:51;100139.0;;;7.42;100.0
77749;BME280;66938;52.084;5.228;2024-02-26T02:53:29;100143.0;;;7.46;100.0
77749;BME280;66938;52.084;5.228;2024-02-26T02:55:05;100146.0;;;7.45;100.0
77749;BME280;66938;52.084;5.228;2024-02-26T02:56:42;100145.0;;;7.44;100.0
77749;BME280;66938;52.084;5.228;2024-02-26T02:59:54;100150.0;;;7.43;100.0
77749;BME280;66938;52.084;5.228;2024-02-26T03:01:30;100160.0;;;7.41;100.0
77749;BME280;66938;52.084;5.228;2024-02-26T03:03:06;100155.0;;;7.37;100.0
77749;BME280;66938;52.084;5.228;2024-02-26T03:06:18;100159.0;;;7.42;100.0
77749;BME280;66938;52.084;5.228;2024-02-26T03:07:55;100170.0;;;7.47;100.0
77749;BME280;66938;52.084;5.228;2024-02-26T03:09:30;100184.0;;;7.14;100.0
77749;BME280;66938;52.084;5.228;2024-02-26T03:12:43;100186.0;;;7.27;100.0
77749;BME280;66938;52.084;5.228;2024-02-26T03:14:19;100190.0;;;7.39;100.0
77749;BME280;66938;52.084;5.228;2024-02-26T03:15:55;100192.0;;;7.0;100.0
77749;BME280;66938;52.084;5.228;2024-02-26T03:17:31;100184.0;;;7.23;100.0
77749;BME280;66938;52.084;5.228;2024-02-26T03:20:43;100187.0;;;7.41;100.0
77749;BME280;66938;52.084;5.228;2024-02-26T03:22:19;100188.0;;;7.17;100.0
77749;BME280;66938;52.084;5.228;2024-02-26T03:23:55;100185.0;;;7.45;100.0
77749;BME280;66938;52.084;5.228;2024-02-26T03:27:08;100186.0;;;7.46;100.0
77749;BME280;66938;52.084;5.228;2024-02-26T03:28:45;100190.0;;;7.44;100.0
77749;BME280;66938;52.084;5.228;2024-02-26T03:30:21;100191.0;;;7.42;100.0
77749;BME280;66938;52.084;5.228;2024-02-26T03:33:34;100194.0;;;7.49;100.0
77749;BME280;66938;52.084;5.228;2024-02-26T03:35:11;100194.0;;;7.54;100.0
77749;BME280;66938;52.084;5.228;2024-02-26T03:36:47;100197.0;;;7.39;100.0
77749;BME280;66938;52.084;5.228;2024-02-26T03:38:23;100202.0;;;7.39;100.0
77749;BME280;66938;52.084;5.228;2024-02-26T03:41:37;100197.0;;;7.38;100.0
77749;BME280;66938;52.084;5.228;2024-02-26T03:43:13;100197.0;;;7.35;100.0
77749;BME280;66938;52.084;5.228;2024-02-26T03:44:49;100203.0;;;7.24;100.0
77749;BME280;66938;52.084;5.228;2024-02-26T03:48:02;100206.0;;;7.18;100.0
77749;BME280;66938;52.084;5.228;2024-02-26T03:49:38;100205.0;;;7.25;100.0
77749;BME280;66938;52.084;5.228;2024-02-26T03:51:14;100207.0;;;7.22;100.0
77749;BME280;66938;52.084;5.228;2024-02-26T03:54:28;100208.0;;;7.33;100.0
77749;BME280;66938;52.084;5.228;2024-02-26T03:56:05;100206.0;;;7.27;100.0
77749;BME280;66938;52.084;5.228;2024-02-26T03:57:43;100205.0;;;7.22;100.0
77749;BME280;66938;52.084;5.228;2024-02-26T03:59:19;100208.0;;;7.28;100.0
77749;BME280;66938;52.084;5.228;2024-02-26T04:02:32;100211.0;;;7.25;100.0
77749;BME280;66938;52.084;5.228;2024-02-26T04:04:08;100207.0;;;7.33;100.0
77749;BME280;66938;52.084;5.228;2024-02-26T04:05:44;100210.0;;;7.34;100.0
77749;BME280;66938;52.084;5.228;2024-02-26T04:08:57;100209.0;;;7.29;100.0
77749;BME280;66938;52.084;5.228;2024-02-26T04:10:33;100213.0;;;7.36;100.0
77749;BME280;66938;52.084;5.228;2024-02-26T04:12:09;100208.0;;;7.24;100.0
77749;BME280;66938;52.084;5.228;2024-02-26T04:15:23;100213.0;;;7.28;100.0
77749;BME280;66938;52.084;5.228;2024-02-26T04:16:59;100216.0;;;7.19;100.0
77749;BME280;66938;52.084;5.228;2024-02-26T04:18:35;100220.0;;;7.17;100.0
77749;BME280;66938;52.084;5.228;2024-02-26T04:20:14;100214.0;;;7.18;100.0
77749;BME280;66938;52.084;5.228;2024-02-26T04:23:28;100224.0;;;7.1;100.0
77749;BME280;66938;52.084;5.228;2024-02-26T04:25:05;100222.0;;;7.25;100.0
77749;BME280;66938;52.084;5.228;2024-02-26T04:26:41;100228.0;;;7.25;100.0
77749;BME280;66938;52.084;5.228;2024-02-26T04:29:53;100219.0;;;7.21;100.0
77749;BME280;66938;52.084;5.228;2024-02-26T04:31:29;100224.0;;;7.17;100.0
77749;BME280;66938;52.084;5.228;2024-02-26T04:33:06;100226.0;;;7.21;100.0
77749;BME280;66938;52.084;5.228;2024-02-26T04:36:19;100220.0;;;7.19;100.0
77749;BME280;66938;52.084;5.228;2024-02-26T04:37:56;100227.0;;;7.07;100.0
77749;BME280;66938;52.084;5.228;2024-02-26T04:39:32;100222.0;;;7.21;100.0
77749;BME280;66938;52.084;5.228;2024-02-26T04:41:09;100227.0;;;7.0;100.0
77749;BME280;66938;52.084;5.228;2024-02-26T04:44:22;100234.0;;;6.95;100.0
77749;BME280;66938;52.084;5.228;2024-02-26T04:45:59;100228.0;;;7.16;100.0
77749;BME280;66938;52.084;5.228;2024-02-26T04:47:35;100227.0;;;7.06;100.0
77749;BME280;66938;52.084;5.228;2024-02-26T04:50:47;100230.0;;;7.13;100.0
77749;BME280;66938;52.084;5.228;2024-02-26T04:52:23;100234.0;;;7.19;100.0
77749;BME280;66938;52.084;5.228;2024-02-26T04:54:00;100237.0;;;7.22;100.0
77749;BME280;66938;52.084;5.228;2024-02-26T04:57:13;100242.0;;;7.18;100.0
77749;BME280;66938;52.084;5.228;2024-02-26T04:58:49;100241.0;;;7.22;100.0
77749;BME280;66938;52.084;5.228;2024-02-26T05:00:26;100242.0;;;7.28;100.0
77749;BME280;66938;52.084;5.228;2024-02-26T05:02:03;100247.0;;;7.22;100.0
77749;BME280;66938;52.084;5.228;2024-02-26T05:05:16;100248.0;;;7.13;100.0
77749;BME280;66938;52.084;5.228;2024-02-26T05:06:53;100250.0;;;7.25;100.0
77749;BME280;66938;52.084;5.228;2024-02-26T05:08:31;100255.0;;;7.23;100.0
77749;BME280;66938;52.084;5.228;2024-02-26T05:11:45;100256.0;;;7.11;100.0
77749;BME280;66938;52.084;5.228;2024-02-26T05:13:21;100256.0;;;7.13;100.0
77749;BME280;66938;52.084;5.228;2024-02-26T05:14:58;100255.0;;;7.13;100.0
77749;BME280;66938;52.084;5.228;2024-02-26T05:18:11;100259.0;;;7.07;100.0
77749;BME280;66938;52.084;5.228;2024-02-26T05:19:47;100257.0;;;7.06;100.0
77749;BME280;66938;52.084;5.228;2024-02-26T05:21:23;100259.0;;;7.04;100.0
77749;BME280;66938;52.084;5.228;2024-02-26T05:22:59;100257.0;;;7.1;100.0
77749;BME280;66938;52.084;5.228;2024-02-26T05:26:19;100259.0;;;7.04;100.0
77749;BME280;66938;52.084;5.228;2024-02-26T05:27:56;100252.0;;;7.1;100.0
77749;BME280;66938;52.084;5.228;2024-02-26T05:29:33;100251.0;;;6.98;100.0
77749;BME280;66938;52.084;5.228;2024-02-26T05:32:48;100258.0;;;7.08;100.0
77749;BME280;66938;52.084;5.228;2024-02-26T05:34:24;100274.0;;;6.9;100.0
77749;BME280;66938;52.084;5.228;2024-02-26T05:36:00;100265.0;;;7.02;100.0
77749;BME280;66938;52.084;5.228;2024-02-26T05:37:38;100272.0;;;6.92;100.0
77749;BME280;66938;52.084;5.228;2024-02-26T05:40:51;100272.0;;;6.79;100.0
77749;BME280;66938;52.084;5.228;2024-02-26T05:42:27;100272.0;;;6.91;100.0
77749;BME280;66938;52.084;5.228;2024-02-26T05:44:03;100271.0;;;6.94;100.0
77749;BME280;66938;52.084;5.228;2024-02-26T05:47:17;100274.0;;;6.99;100.0
77749;BME280;66938;52.084;5.228;2024-02-26T05:48:53;100280.0;;;6.96;100.0
77749;BME280;66938;52.084;5.228;2024-02-26T05:50:30;100286.0;;;6.82;100.0
77749;BME280;66938;52.084;5.228;2024-02-26T05:53:44;100280.0;;;6.93;100.0
77749;BME280;66938;52.084;5.228;2024-02-26T05:55:22;100277.0;;;6.92;100.0
77749;BME280;66938;52.084;5.228;2024-02-26T05:56:59;100281.0;;;6.99;100.0
77749;BME280;66938;52.084;5.228;2024-02-26T05:58:35;100283.0;;;6.88;100.0
77749;BME280;66938;52.084;5.228;2024-02-26T06:01:49;100290.0;;;6.96;100.0
77749;BME280;66938;52.084;5.228;2024-02-26T06:03:25;100298.0;;;6.89;100.0
77749;BME280;66938;52.084;5.228;2024-02-26T06:05:02;100305.0;;;6.91;100.0
77749;BME280;66938;52.084;5.228;2024-02-26T06:08:16;100305.0;;;6.88;100.0
77749;BME280;66938;52.084;5.228;2024-02-26T06:09:53;100299.0;;;6.97;100.0
77749;BME280;66938;52.084;5.228;2024-02-26T06:11:31;100298.0;;;6.92;100.0
77749;BME280;66938;52.084;5.228;2024-02-26T06:13:08;100297.0;;;6.91;100.0
77749;BME280;66938;52.084;5.228;2024-02-26T06:16:22;100300.0;;;6.98;100.0
77749;BME280;66938;52.084;5.228;2024-02-26T06:19:36;100319.0;;;6.89;100.0
77749;BME280;66938;52.084;5.228;2024-02-26T06:22:50;100314.0;;;6.88;100.0
77749;BME280;66938;52.084;5.228;2024-02-26T06:24:27;100320.0;;;6.97;100.0
77749;BME280;66938;52.084;5.228;2024-02-26T06:26:05;100324.0;;;7.0;100.0
77749;BME280;66938;52.084;5.228;2024-02-26T06:29:18;100323.0;;;7.08;100.0
77749;BME280;66938;52.084;5.228;2024-02-26T06:30:55;100319.0;;;7.07;100.0
77749;BME280;66938;52.084;5.228;2024-02-26T06:32:32;100325.0;;;7.05;100.0
77749;BME280;66938;52.084;5.228;2024-02-26T06:34:10;100342.0;;;6.79;100.0
77749;BME280;66938;52.084;5.228;2024-02-26T06:37:24;100335.0;;;7.0;100.0
77749;BME280;66938;52.084;5.228;2024-02-26T06:39:01;100338.0;;;6.91;100.0
77749;BME280;66938;52.084;5.228;2024-02-26T06:40:38;100334.0;;;6.97;100.0
77749;BME280;66938;52.084;5.228;2024-02-26T06:43:51;100336.0;;;6.98;100.0
77749;BME280;66938;52.084;5.228;2024-02-26T06:45:28;100340.0;;;6.96;100.0
77749;BME280;66938;52.084;5.228;2024-02-26T06:47:04;100351.0;;;7.02;100.0
77749;BME280;66938;52.084;5.228;2024-02-26T06:48:41;100355.0;;;6.99;100.0
77749;BME280;66938;52.084;5.228;2024-02-26T06:51:54;100361.0;;;7.0;100.0
77749;BME280;66938;52.084;5.228;2024-02-26T06:53:31;100357.0;;;6.91;100.0
77749;BME280;66938;52.084;5.228;2024-02-26T06:55:08;100359.0;;;6.93;100.0
77749;BME280;66938;52.084;5.228;2024-02-26T06:58:23;100355.0;;;7.04;100.0
77749;BME280;66938;52.084;5.228;2024-02-26T06:59:59;100359.0;;;7.07;100.0
77749;BME280;66938;52.084;5.228;2024-02-26T07:01:36;100365.0;;;7.08;100.0
77749;BME280;66938;52.084;5.228;2024-02-26T07:04:50;100368.0;;;7.0;100.0
77749;BME280;66938;52.084;5.228;2024-02-26T07:06:27;100368.0;;;6.87;100.0
77749;BME280;66938;52.084;5.228;2024-02-26T07:08:06;100371.0;;;6.82;100.0
77749;BME280;66938;52.084;5.228;2024-02-26T07:09:43;100374.0;;;6.84;100.0
77749;BME280;66938;52.084;5.228;2024-02-26T07:12:56;100378.0;;;6.87;100.0
77749;BME280;66938;52.084;5.228;2024-02-26T07:14:32;100386.0;;;6.88;100.0
77749;BME280;66938;52.084;5.228;2024-02-26T07:16:14;100385.0;;;6.86;100.0
77749;BME280;66938;52.084;5.228;2024-02-26T07:17:58;100389.0;;;6.86;100.0
77749;BME280;66938;52.084;5.228;2024-02-26T07:21:12;100397.0;;;6.78;100.0
77749;BME280;66938;52.084;5.228;2024-02-26T07:22:48;100396.0;;;6.91;100.0
77749;BME280;66938;52.084;5.228;2024-02-26T07:24:24;100396.0;;;6.76;100.0
77749;BME280;66938;52.084;5.228;2024-02-26T07:27:42;100398.0;;;6.81;100.0
77749;BME280;66938;52.084;5.228;2024-02-26T07:29:19;100398.0;;;6.77;100.0
77749;BME280;66938;52.084;5.228;2024-02-26T07:30:56;100401.0;;;6.79;100.0
77749;BME280;66938;52.084;5.228;2024-02-26T07:34:10;100405.0;;;6.72;100.0
77749;BME280;66938;52.084;5.228;2024-02-26T07:35:47;100407.0;;;6.64;100.0
77749;BME280;66938;52.084;5.228;2024-02-26T07:37:24;100407.0;;;6.6;100.0
77749;BME280;66938;52.084;5.228;2024-02-26T07:39:01;100402.0;;;6.6;100.0
77749;BME280;66938;52.084;5.228;2024-02-26T07:42:16;100407.0;;;6.65;100.0
77749;BME280;66938;52.084;5.228;2024-02-26T07:43:52;100412.0;;;6.55;100.0
77749;BME280;66938;52.084;5.228;2024-02-26T07:45:29;100412.0;;;6.53;100.0
77749;BME280;66938;52.084;5.228;2024-02-26T07:48:42;100415.0;;;6.54;100.0
77749;BME280;66938;52.084;5.228;2024-02-26T07:50:18;100425.0;;;6.65;100.0
77749;BME280;66938;52.084;5.228;2024-02-26T07:51:54;100428.0;;;6.59;100.0
77749;BME280;66938;52.084;5.228;2024-02-26T07:55:09;100428.0;;;6.63;100.0
77749;BME280;66938;52.084;5.228;2024-02-26T07:56:46;100431.0;;;6.63;100.0
77749;BME280;66938;52.084;5.228;2024-02-26T07:58:23;100442.0;;;6.61;100.0
77749;BME280;66938;52.084;5.228;2024-02-26T08:00:00;100440.0;;;6.62;100.0
77749;BME280;66938;52.084;5.228;2024-02-26T08:03:13;100447.0;;;6.77;100.0
77749;BME280;66938;52.084;5.228;2024-02-26T08:04:50;100447.0;;;6.6;100.0
77749;BME280;66938;52.084;5.228;2024-02-26T08:06:27;100447.0;;;6.71;100.0
77749;BME280;66938;52.084;5.228;2024-02-26T08:09:41;100455.0;;;6.73;100.0
77749;BME280;66938;52.084;5.228;2024-02-26T08:11:18;100462.0;;;6.8;100.0
77749;BME280;66938;52.084;5.228;2024-02-26T08:12:55;100456.0;;;6.79;100.0
77749;BME280;66938;52.084;5.228;2024-02-26T08:14:31;100457.0;;;6.66;100.0
77749;BME280;66938;52.084;5.228;2024-02-26T08:17:45;100462.0;;;6.56;100.0
77749;BME280;66938;52.084;5.228;2024-02-26T08:19:22;100470.0;;;6.64;100.0
77749;BME280;66938;52.084;5.228;2024-02-26T08:21:00;100470.0;;;6.52;100.0
77749;BME280;66938;52.084;5.228;2024-02-26T08:24:14;100460.0;;;6.62;100.0
77749;BME280;66938;52.084;5.228;2024-02-26T08:25:51;100471.0;;;6.62;100.0
77749;BME280;66938;52.084;5.228;2024-02-26T08:27:28;100477.0;;;6.58;100.0
77749;BME280;66938;52.084;5.228;2024-02-26T08:30:41;100476.0;;;6.54;100.0
77749;BME280;66938;52.084;5.228;2024-02-26T08:32:18;100490.0;;;6.57;100.0
77749;BME280;66938;52.084;5.228;2024-02-26T08:33:55;100483.0;;;6.55;100.0
77749;BME280;66938;52.084;5.228;2024-02-26T08:35:32;100489.0;;;6.57;100.0
77749;BME280;66938;52.084;5.228;2024-02-26T08:38:44;100485.0;;;6.65;100.0
77749;BME280;66938;52.084;5.228;2024-02-26T08:40:21;100484.0;;;6.57;100.0
77749;BME280;66938;52.084;5.228;2024-02-26T08:41:58;100481.0;;;6.53;100.0
77749;BME280;66938;52.084;5.228;2024-02-26T08:45:12;100494.0;;;6.66;100.0
77749;BME280;66938;52.084;5.228;2024-02-26T08:46:49;100498.0;;;6.63;100.0
77749;BME280;66938;52.084;5.228;2024-02-26T08:48:25;100494.0;;;6.64;100.0
77749;BME280;66938;52.084;5.228;2024-02-26T08:50:03;100502.0;;;6.58;100.0
77749;BME280;66938;52.084;5.228;2024-02-26T08:53:18;100506.0;;;6.76;100.0
77749;BME280;66938;52.084;5.228;2024-02-26T08:56:32;100509.0;;;6.65;100.0
77749;BME280;66938;52.084;5.228;2024-02-26T08:59:47;100508.0;;;6.69;100.0
77749;BME280;66938;52.084;5.228;2024-02-26T09:01:24;100514.0;;;6.61;100.0
77749;BME280;66938;52.084;5.228;2024-02-26T09:03:01;100514.0;;;6.61;100.0
77749;BME280;66938;52.084;5.228;2024-02-26T09:06:14;100519.0;;;6.61;100.0
77749;BME280;66938;52.084;5.228;2024-02-26T09:07:51;100519.0;;;6.56;100.0
77749;BME280;66938;52.084;5.228;2024-02-26T09:09:28;100524.0;;;6.5;100.0
77749;BME280;66938;52.084;5.228;2024-02-26T09:11:05;100526.0;;;6.42;100.0
77749;BME280;66938;52.084;5.228;2024-02-26T09:14:18;100518.0;;;6.43;100.0
77749;BME280;66938;52.084;5.228;2024-02-26T09:15:55;100530.0;;;6.52;100.0
77749;BME280;66938;52.084;5.228;2024-02-26T09:17:32;100531.0;;;6.5;100.0
77749;BME280;66938;52.084;5.228;2024-02-26T09:20:47;100538.0;;;6.48;100.0
77749;BME280;66938;52.084;5.228;2024-02-26T09:22:24;100536.0;;;6.4;100.0
77749;BME280;66938;52.084;5.228;2024-02-26T09:24:01;100543.0;;;6.51;100.0
77749;BME280;66938;52.084;5.228;2024-02-26T09:25:38;100548.0;;;6.58;100.0
77749;BME280;66938;52.084;5.228;2024-02-26T09:28:52;100546.0;;;6.49;100.0
77749;BME280;66938;52.084;5.228;2024-02-26T09:30:30;100551.0;;;6.49;100.0
77749;BME280;66938;52.084;5.228;2024-02-26T09:32:07;100551.0;;;6.46;100.0
77749;BME280;66938;52.084;5.228;2024-02-26T09:35:21;100555.0;;;6.41;100.0
77749;BME280;66938;52.084;5.228;2024-02-26T09:36:58;100547.0;;;6.55;100.0
77749;BME280;66938;52.084;5.228;2024-02-26T09:38:35;100553.0;;;6.64;100.0
77749;BME280;66938;52.084;5.228;2024-02-26T09:40:12;100553.0;;;6.68;100.0
77749;BME280;66938;52.084;5.228;2024-02-26T09:43:28;100561.0;;;6.6;100.0
77749;BME280;66938;52.084;5.228;2024-02-26T09:45:12;100564.0;;;6.46;100.0
77749;BME280;66938;52.084;5.228;2024-02-26T09:46:53;100568.0;;;6.4;100.0
77749;BME280;66938;52.084;5.228;2024-02-26T09:50:09;100574.0;;;6.35;100.0
77749;BME280;66938;52.084;5.228;2024-02-26T09:51:49;100566.0;;;6.35;100.0
77749;BME280;66938;52.084;5.228;2024-02-26T09:53:26;100580.0;;;6.39;100.0
77749;BME280;66938;52.084;5.228;2024-02-26T09:55:07;100580.0;;;6.4;100.0
77749;BME280;66938;52.084;5.228;2024-02-26T09:58:28;100577.0;;;6.47;100.0
77749;BME280;66938;52.084;5.228;2024-02-26T10:00:10;100590.0;;;6.37;100.0
77749;BME280;66938;52.084;5.228;2024-02-26T10:01:52;100594.0;;;6.37;100.0
77749;BME280;66938;52.084;5.228;2024-02-26T10:03:36;100596.0;;;6.36;100.0
77749;BME280;66938;52.084;5.228;2024-02-26T10:06:54;100593.0;;;6.23;100.0
77749;BME280;66938;52.084;5.228;2024-02-26T10:08:31;100597.0;;;6.26;100.0
77749;BME280;66938;52.084;5.228;2024-02-26T10:10:09;100599.0;;;6.38;100.0
77749;BME280;66938;52.084;5.228;2024-02-26T10:11:47;100605.0;;;6.39;100.0
77749;BME280;66938;52.084;5.228;2024-02-26T10:15:01;100609.0;;;6.4;100.0
77749;BME280;66938;52.084;5.228;2024-02-26T10:16:38;100606.0;;;6.44;100.0
77749;BME280;66938;52.084;5.228;2024-02-26T10:18:15;100610.0;;;6.47;100.0
77749;BME280;66938;52.084;5.228;2024-02-26T10:21:29;100608.0;;;6.62;100.0
77749;BME280;66938;52.084;5.228;2024-02-26T10:23:07;100613.0;;;6.55;100.0
77749;BME280;66938;52.084;5.228;2024-02-26T10:24:46;100612.0;;;6.46;100.0
77749;BME280;66938;52.084;5.228;2024-02-26T10:26:23;100621.0;;;6.41;100.0
77749;BME280;66938;52.084;5.228;2024-02-26T10:29:38;100618.0;;;6.45;100.0
77749;BME280;66938;52.084;5.228;2024-02-26T10:31:15;100627.0;;;6.38;100.0
77749;BME280;66938;52.084;5.228;2024-02-26T10:32:52;100634.0;;;6.46;100.0
77749;BME280;66938;52.084;5.228;2024-02-26T10:36:07;100632.0;;;6.49;100.0
77749;BME280;66938;52.084;5.228;2024-02-26T10:37:46;100636.0;;;6.64;100.0
77749;BME280;66938;52.084;5.228;2024-02-26T10:39:25;100646.0;;;6.58;100.0
77749;BME280;66938;52.084;5.228;2024-02-26T10:41:02;100648.0;;;6.58;100.0
77749;BME280;66938;52.084;5.228;2024-02-26T10:44:18;100652.0;;;6.6;100.0
77749;BME280;66938;52.084;5.228;2024-02-26T10:45:54;100653.0;;;6.67;100.0
77749;BME280;66938;52.084;5.228;2024-02-26T10:47:31;100659.0;;;6.59;100.0
77749;BME280;66938;52.084;5.228;2024-02-26T10:50:53;100663.0;;;6.8;100.0
77749;BME280;66938;52.084;5.228;2024-02-26T10:52:31;100665.0;;;6.7;100.0
77749;BME280;66938;52.084;5.228;2024-02-26T10:54:12;100669.0;;;6.8;100.0
77749;BME280;66938;52.084;5.228;2024-02-26T10:55:54;100672.0;;;6.63;100.0
77749;BME280;66938;52.084;5.228;2024-02-26T10:59:12;100675.0;;;6.63;100.0
77749;BME280;66938;52.084;5.228;2024-02-26T11:00:51;100686.0;;;6.62;100.0
77749;BME280;66938;52.084;5.228;2024-02-26T11:02:29;100685.0;;;6.69;100.0
77749;BME280;66938;52.084;5.228;2024-02-26T11:04:08;100675.0;;;6.61;100.0
77749;BME280;66938;52.084;5.228;2024-02-26T11:07:24;100692.0;;;6.73;100.0
77749;BME280;66938;52.084;5.228;2024-02-26T11:09:04;100692.0;;;6.83;100.0
77749;BME280;66938;52.084;5.228;2024-02-26T11:10:43;100692.0;;;6.87;100.0
77749;BME280;66938;52.084;5.228;2024-02-26T11:12:20;100698.0;;;6.85;100.0
77749;BME280;66938;52.084;5.228;2024-02-26T11:15:40;100701.0;;;6.8;100.0
77749;BME280;66938;52.084;5.228;2024-02-26T11:17:19;100701.0;;;6.9;100.0
77749;BME280;66938;52.084;5.228;2024-02-26T11:18:57;100708.0;;;6.88;100.0